sensor_id;sensor_type;location;lat;lon;timestamp;temperature;humidity
2050;DHT22;8478;49.208;8.806;2023-05-24T00:01:42;17.30;99.90
2050;DHT22;8478;49.208;8.806;2023-05-24T00:04:08;17.30;99.90
2050;DHT22;8478;49.208;8.806;2023-05-24T00:06:35;17.40;99.90
2050;DHT22;8478;49.208;8.806;2023-05-24T00:09:04;17.30;99.90
2050;DHT22;8478;49.208;8.806;2023-05-24T00:11:30;17.40;99.90
2050;DHT22;8478;49.208;8.806;2023-05-24T00:13:56;17.40;99.90
2050;DHT22;8478;49.208;8.806;2023-05-24T00:16:22;17.30;99.90
2050;DHT22;8478;49.208;8.806;2023-05-24T00:18:48;17.30;99.90
2050;DHT22;8478;49.208;8.806;2023-05-24T00:21:14;17.30;99.90
2050;DHT22;8478;49.208;8.806;2023-05-24T00:23:40;17.30;99.90
2050;DHT22;8478;49.208;8.806;2023-05-24T00:26:07;17.30;99.90
2050;DHT22;8478;49.208;8.806;2023-05-24T00:28:33;17.30;99.90
2050;DHT22;8478;49.208;8.806;2023-05-24T00:30:59;17.30;99.90
2050;DHT22;8478;49.208;8.806;2023-05-24T00:33:25;17.30;99.90
2050;DHT22;8478;49.208;8.806;2023-05-24T00:35:53;17.30;99.90
2050;DHT22;8478;49.208;8.806;2023-05-24T00:38:25;17.30;99.90
2050;DHT22;8478;49.208;8.806;2023-05-24T00:40:51;17.30;99.90
2050;DHT22;8478;49.208;8.806;2023-05-24T00:43:17;17.30;99.90
2050;DHT22;8478;49.208;8.806;2023-05-24T00:45:43;17.30;99.90
2050;DHT22;8478;49.208;8.806;2023-05-24T00:48:09;17.30;99.90
2050;DHT22;8478;49.208;8.806;2023-05-24T00:50:36;17.30;99.90
2050;DHT22;8478;49.208;8.806;2023-05-24T00:53:03;17.20;99.90
2050;DHT22;8478;49.208;8.806;2023-05-24T00:55:29;17.30;99.90
2050;DHT22;8478;49.208;8.806;2023-05-24T00:57:56;17.30;99.90
2050;DHT22;8478;49.208;8.806;2023-05-24T01:00:22;17.30;99.90
2050;DHT22;8478;49.208;8.806;2023-05-24T01:02:49;17.30;99.90
2050;DHT22;8478;49.208;8.806;2023-05-24T01:05:19;17.20;99.90
2050;DHT22;8478;49.208;8.806;2023-05-24T01:08:10;17.20;99.90
2050;DHT22;8478;49.208;8.806;2023-05-24T01:10:56;17.20;99.90
2050;DHT22;8478;49.208;8.806;2023-05-24T01:13:47;17.20;99.90
2050;DHT22;8478;49.208;8.806;2023-05-24T01:16:24;17.20;99.90
2050;DHT22;8478;49.208;8.806;2023-05-24T01:18:55;17.20;99.90
2050;DHT22;8478;49.208;8.806;2023-05-24T01:25:01;17.20;99.90
2050;DHT22;8478;49.208;8.806;2023-05-24T01:27:30;17.20;99.90
2050;DHT22;8478;49.208;8.806;2023-05-24T01:29:57;17.20;99.90
2050;DHT22;8478;49.208;8.806;2023-05-24T01:32:23;17.20;99.90
2050;DHT22;8478;49.208;8.806;2023-05-24T01:34:50;17.20;99.90
2050;DHT22;8478;49.208;8.806;2023-05-24T01:37:15;17.20;99.90
2050;DHT22;8478;49.208;8.806;2023-05-24T01:39:41;17.20;99.90
2050;DHT22;8478;49.208;8.806;2023-05-24T01:42:26;17.20;99.90
2050;DHT22;8478;49.208;8.806;2023-05-24T01:50:25;17.20;99.90
2050;DHT22;8478;49.208;8.806;2023-05-24T01:52:54;17.20;99.90
2050;DHT22;8478;49.208;8.806;2023-05-24T01:55:23;17.20;99.90
2050;DHT22;8478;49.208;8.806;2023-05-24T01:57:53;17.10;99.90
2050;DHT22;8478;49.208;8.806;2023-05-24T02:00:23;17.10;99.90
2050;DHT22;8478;49.208;8.806;2023-05-24T02:02:49;17.20;99.90
2050;DHT22;8478;49.208;8.806;2023-05-24T02:05:15;17.10;99.90
2050;DHT22;8478;49.208;8.806;2023-05-24T02:07:41;17.10;99.90
2050;DHT22;8478;49.208;8.806;2023-05-24T02:10:07;17.10;99.90
2050;DHT22;8478;49.208;8.806;2023-05-24T02:12:33;17.10;99.90
2050;DHT22;8478;49.208;8.806;2023-05-24T02:14:59;17.10;99.90
2050;DHT22;8478;49.208;8.806;2023-05-24T02:17:25;17.10;99.90
2050;DHT22;8478;49.208;8.806;2023-05-24T02:19:51;17.10;99.90
2050;DHT22;8478;49.208;8.806;2023-05-24T02:22:17;17.10;99.90
2050;DHT22;8478;49.208;8.806;2023-05-24T02:24:42;17.10;99.90
2050;DHT22;8478;49.208;8.806;2023-05-24T02:27:08;17.10;99.90
2050;DHT22;8478;49.208;8.806;2023-05-24T02:29:34;17.10;99.90
2050;DHT22;8478;49.208;8.806;2023-05-24T02:31:59;17.10;99.90
2050;DHT22;8478;49.208;8.806;2023-05-24T02:34:25;17.10;99.90
2050;DHT22;8478;49.208;8.806;2023-05-24T02:36:51;17.10;99.90
2050;DHT22;8478;49.208;8.806;2023-05-24T02:39:19;17.10;99.90
2050;DHT22;8478;49.208;8.806;2023-05-24T02:41:44;17.10;99.90
2050;DHT22;8478;49.208;8.806;2023-05-24T02:44:10;17.10;99.90
2050;DHT22;8478;49.208;8.806;2023-05-24T02:46:36;17.10;99.90
2050;DHT22;8478;49.208;8.806;2023-05-24T02:49:02;17.10;99.90
2050;DHT22;8478;49.208;8.806;2023-05-24T02:51:27;17.10;99.90
2050;DHT22;8478;49.208;8.806;2023-05-24T02:53:53;17.10;99.90
2050;DHT22;8478;49.208;8.806;2023-05-24T02:56:19;17.00;99.90
2050;DHT22;8478;49.208;8.806;2023-05-24T02:58:46;17.00;99.90
2050;DHT22;8478;49.208;8.806;2023-05-24T03:01:12;17.00;99.90
2050;DHT22;8478;49.208;8.806;2023-05-24T03:03:38;17.00;99.90
2050;DHT22;8478;49.208;8.806;2023-05-24T03:06:05;17.00;99.90
2050;DHT22;8478;49.208;8.806;2023-05-24T03:08:32;17.00;99.90
2050;DHT22;8478;49.208;8.806;2023-05-24T03:10:57;17.00;99.90
2050;DHT22;8478;49.208;8.806;2023-05-24T03:13:23;17.00;99.90
2050;DHT22;8478;49.208;8.806;2023-05-24T03:15:49;17.00;99.90
2050;DHT22;8478;49.208;8.806;2023-05-24T03:18:15;17.00;99.90
2050;DHT22;8478;49.208;8.806;2023-05-24T03:20:40;17.00;99.90
2050;DHT22;8478;49.208;8.806;2023-05-24T03:23:06;17.00;99.90
2050;DHT22;8478;49.208;8.806;2023-05-24T03:25:33;17.00;99.90
2050;DHT22;8478;49.208;8.806;2023-05-24T03:27:59;17.00;99.90
2050;DHT22;8478;49.208;8.806;2023-05-24T03:30:27;17.00;99.90
2050;DHT22;8478;49.208;8.806;2023-05-24T03:32:52;17.00;99.90
2050;DHT22;8478;49.208;8.806;2023-05-24T03:35:18;17.00;99.90
2050;DHT22;8478;49.208;8.806;2023-05-24T03:37:44;17.00;99.90
2050;DHT22;8478;49.208;8.806;2023-05-24T03:40:10;17.00;99.90
2050;DHT22;8478;49.208;8.806;2023-05-24T03:42:36;16.90;99.90
2050;DHT22;8478;49.208;8.806;2023-05-24T03:45:05;16.90;99.90
2050;DHT22;8478;49.208;8.806;2023-05-24T03:47:31;17.00;99.90
2050;DHT22;8478;49.208;8.806;2023-05-24T03:49:56;16.90;99.90
2050;DHT22;8478;49.208;8.806;2023-05-24T03:52:22;16.90;99.90
2050;DHT22;8478;49.208;8.806;2023-05-24T03:54:48;16.90;99.90
2050;DHT22;8478;49.208;8.806;2023-05-24T03:57:14;16.90;99.90
2050;DHT22;8478;49.208;8.806;2023-05-24T03:59:40;16.90;99.90
2050;DHT22;8478;49.208;8.806;2023-05-24T04:02:06;16.90;99.90
2050;DHT22;8478;49.208;8.806;2023-05-24T04:04:31;16.90;99.90
2050;DHT22;8478;49.208;8.806;2023-05-24T04:06:57;16.90;99.90
2050;DHT22;8478;49.208;8.806;2023-05-24T04:09:23;16.90;99.90
2050;DHT22;8478;49.208;8.806;2023-05-24T04:11:49;16.90;99.90
2050;DHT22;8478;49.208;8.806;2023-05-24T04:14:15;16.90;99.90
2050;DHT22;8478;49.208;8.806;2023-05-24T04:16:41;16.90;99.90
2050;DHT22;8478;49.208;8.806;2023-05-24T04:19:09;16.90;99.90
2050;DHT22;8478;49.208;8.806;2023-05-24T04:21:36;16.90;99.90
2050;DHT22;8478;49.208;8.806;2023-05-24T04:24:05;16.90;99.90
2050;DHT22;8478;49.208;8.806;2023-05-24T04:26:33;16.90;99.90
2050;DHT22;8478;49.208;8.806;2023-05-24T04:28:59;16.90;99.90
2050;DHT22;8478;49.208;8.806;2023-05-24T04:31:26;16.90;99.90
2050;DHT22;8478;49.208;8.806;2023-05-24T04:33:54;16.90;99.90
2050;DHT22;8478;49.208;8.806;2023-05-24T04:36:20;16.90;99.90
2050;DHT22;8478;49.208;8.806;2023-05-24T04:38:47;16.90;99.90
2050;DHT22;8478;49.208;8.806;2023-05-24T04:41:13;16.90;99.90
2050;DHT22;8478;49.208;8.806;2023-05-24T04:43:39;16.90;99.90
2050;DHT22;8478;49.208;8.806;2023-05-24T04:46:05;16.80;99.90
2050;DHT22;8478;49.208;8.806;2023-05-24T04:48:30;16.80;99.90
2050;DHT22;8478;49.208;8.806;2023-05-24T04:50:56;16.80;99.90
2050;DHT22;8478;49.208;8.806;2023-05-24T04:53:23;16.80;99.90
2050;DHT22;8478;49.208;8.806;2023-05-24T04:55:49;16.80;99.90
2050;DHT22;8478;49.208;8.806;2023-05-24T04:58:15;16.80;99.90
2050;DHT22;8478;49.208;8.806;2023-05-24T05:00:42;16.80;99.90
2050;DHT22;8478;49.208;8.806;2023-05-24T05:03:08;16.80;99.90
2050;DHT22;8478;49.208;8.806;2023-05-24T05:05:34;16.80;99.90
2050;DHT22;8478;49.208;8.806;2023-05-24T05:08:00;16.80;99.90
2050;DHT22;8478;49.208;8.806;2023-05-24T05:10:26;16.80;99.90
2050;DHT22;8478;49.208;8.806;2023-05-24T05:12:52;16.80;99.90
2050;DHT22;8478;49.208;8.806;2023-05-24T05:15:21;16.80;99.90
2050;DHT22;8478;49.208;8.806;2023-05-24T05:17:47;16.80;99.90
2050;DHT22;8478;49.208;8.806;2023-05-24T05:20:12;16.80;99.90
2050;DHT22;8478;49.208;8.806;2023-05-24T05:22:38;16.80;99.90
2050;DHT22;8478;49.208;8.806;2023-05-24T05:25:04;16.80;99.90
2050;DHT22;8478;49.208;8.806;2023-05-24T05:27:30;16.80;99.90
2050;DHT22;8478;49.208;8.806;2023-05-24T05:29:55;16.80;99.90
2050;DHT22;8478;49.208;8.806;2023-05-24T05:32:21;16.80;99.90
2050;DHT22;8478;49.208;8.806;2023-05-24T05:34:47;16.80;99.90
2050;DHT22;8478;49.208;8.806;2023-05-24T05:37:12;16.80;99.90
2050;DHT22;8478;49.208;8.806;2023-05-24T05:39:38;16.80;99.90
2050;DHT22;8478;49.208;8.806;2023-05-24T05:42:04;16.80;99.90
2050;DHT22;8478;49.208;8.806;2023-05-24T05:44:30;16.80;99.90
2050;DHT22;8478;49.208;8.806;2023-05-24T05:46:55;16.80;99.90
2050;DHT22;8478;49.208;8.806;2023-05-24T05:49:21;16.80;99.90
2050;DHT22;8478;49.208;8.806;2023-05-24T05:51:47;16.70;99.90
2050;DHT22;8478;49.208;8.806;2023-05-24T05:54:13;16.70;99.90
2050;DHT22;8478;49.208;8.806;2023-05-24T05:56:43;16.70;99.90
2050;DHT22;8478;49.208;8.806;2023-05-24T05:59:11;16.70;99.90
2050;DHT22;8478;49.208;8.806;2023-05-24T06:01:38;16.70;99.90
2050;DHT22;8478;49.208;8.806;2023-05-24T06:04:03;16.70;99.90
2050;DHT22;8478;49.208;8.806;2023-05-24T06:06:29;16.70;99.90
2050;DHT22;8478;49.208;8.806;2023-05-24T06:08:54;16.70;99.90
2050;DHT22;8478;49.208;8.806;2023-05-24T06:11:20;16.70;99.90
2050;DHT22;8478;49.208;8.806;2023-05-24T06:13:46;16.70;99.90
2050;DHT22;8478;49.208;8.806;2023-05-24T06:16:12;16.70;99.90
2050;DHT22;8478;49.208;8.806;2023-05-24T06:18:38;16.70;99.90
2050;DHT22;8478;49.208;8.806;2023-05-24T06:21:05;16.70;99.90
2050;DHT22;8478;49.208;8.806;2023-05-24T06:23:31;16.70;99.90
2050;DHT22;8478;49.208;8.806;2023-05-24T06:25:57;16.70;99.90
2050;DHT22;8478;49.208;8.806;2023-05-24T06:28:23;16.70;99.90
2050;DHT22;8478;49.208;8.806;2023-05-24T06:30:49;16.70;99.90
2050;DHT22;8478;49.208;8.806;2023-05-24T06:33:15;16.70;99.90
2050;DHT22;8478;49.208;8.806;2023-05-24T06:35:41;16.70;99.90
2050;DHT22;8478;49.208;8.806;2023-05-24T06:38:06;16.70;99.90
2050;DHT22;8478;49.208;8.806;2023-05-24T06:40:32;16.70;99.90
2050;DHT22;8478;49.208;8.806;2023-05-24T06:42:58;16.70;99.90
2050;DHT22;8478;49.208;8.806;2023-05-24T06:45:24;16.70;99.90
2050;DHT22;8478;49.208;8.806;2023-05-24T06:47:49;16.70;99.90
2050;DHT22;8478;49.208;8.806;2023-05-24T06:50:15;16.70;99.90
2050;DHT22;8478;49.208;8.806;2023-05-24T06:52:41;16.70;99.90
2050;DHT22;8478;49.208;8.806;2023-05-24T06:55:07;16.70;99.90
2050;DHT22;8478;49.208;8.806;2023-05-24T06:57:33;16.70;99.90
2050;DHT22;8478;49.208;8.806;2023-05-24T06:59:58;16.60;99.90
2050;DHT22;8478;49.208;8.806;2023-05-24T07:02:24;16.60;99.90
2050;DHT22;8478;49.208;8.806;2023-05-24T07:04:52;16.60;99.90
2050;DHT22;8478;49.208;8.806;2023-05-24T07:07:18;16.60;99.90
2050;DHT22;8478;49.208;8.806;2023-05-24T07:09:44;16.60;99.90
2050;DHT22;8478;49.208;8.806;2023-05-24T07:12:10;16.60;99.90
2050;DHT22;8478;49.208;8.806;2023-05-24T07:14:36;16.60;99.90
2050;DHT22;8478;49.208;8.806;2023-05-24T07:17:02;16.60;99.90
2050;DHT22;8478;49.208;8.806;2023-05-24T07:19:28;16.60;99.90
2050;DHT22;8478;49.208;8.806;2023-05-24T07:21:55;16.60;99.90
2050;DHT22;8478;49.208;8.806;2023-05-24T07:24:21;16.60;99.90
2050;DHT22;8478;49.208;8.806;2023-05-24T07:26:49;16.60;99.90
2050;DHT22;8478;49.208;8.806;2023-05-24T07:29:15;16.60;99.90
2050;DHT22;8478;49.208;8.806;2023-05-24T07:31:40;16.60;99.90
2050;DHT22;8478;49.208;8.806;2023-05-24T07:34:07;16.60;99.90
2050;DHT22;8478;49.208;8.806;2023-05-24T07:36:32;16.60;99.90
2050;DHT22;8478;49.208;8.806;2023-05-24T07:38:58;16.60;99.90
2050;DHT22;8478;49.208;8.806;2023-05-24T07:41:26;16.60;99.90
2050;DHT22;8478;49.208;8.806;2023-05-24T07:43:55;16.60;99.90
2050;DHT22;8478;49.208;8.806;2023-05-24T07:46:21;16.60;99.90
2050;DHT22;8478;49.208;8.806;2023-05-24T07:48:47;16.60;99.90
2050;DHT22;8478;49.208;8.806;2023-05-24T07:51:12;16.60;99.90
2050;DHT22;8478;49.208;8.806;2023-05-24T07:53:38;16.60;99.90
2050;DHT22;8478;49.208;8.806;2023-05-24T07:56:04;16.60;99.90
2050;DHT22;8478;49.208;8.806;2023-05-24T07:58:32;16.60;99.90
2050;DHT22;8478;49.208;8.806;2023-05-24T08:00:58;16.60;99.90
2050;DHT22;8478;49.208;8.806;2023-05-24T08:03:23;16.60;99.90
2050;DHT22;8478;49.208;8.806;2023-05-24T08:05:50;16.60;99.90
2050;DHT22;8478;49.208;8.806;2023-05-24T08:08:16;16.60;99.90
2050;DHT22;8478;49.208;8.806;2023-05-24T08:10:42;16.60;99.90
2050;DHT22;8478;49.208;8.806;2023-05-24T08:13:08;16.60;99.90
2050;DHT22;8478;49.208;8.806;2023-05-24T08:15:33;16.60;99.90
2050;DHT22;8478;49.208;8.806;2023-05-24T08:17:59;16.60;99.90
2050;DHT22;8478;49.208;8.806;2023-05-24T08:20:25;16.60;99.90
2050;DHT22;8478;49.208;8.806;2023-05-24T08:22:50;16.60;99.90
2050;DHT22;8478;49.208;8.806;2023-05-24T08:25:16;16.60;99.90
2050;DHT22;8478;49.208;8.806;2023-05-24T08:27:42;16.60;99.90
2050;DHT22;8478;49.208;8.806;2023-05-24T08:30:08;16.60;99.90
2050;DHT22;8478;49.208;8.806;2023-05-24T08:32:35;16.60;99.90
2050;DHT22;8478;49.208;8.806;2023-05-24T08:35:01;16.50;99.90
2050;DHT22;8478;49.208;8.806;2023-05-24T08:37:27;16.60;99.90
2050;DHT22;8478;49.208;8.806;2023-05-24T08:39:53;16.60;99.90
2050;DHT22;8478;49.208;8.806;2023-05-24T08:42:20;16.60;99.90
2050;DHT22;8478;49.208;8.806;2023-05-24T08:44:56;16.50;99.90
2050;DHT22;8478;49.208;8.806;2023-05-24T08:47:23;16.60;99.90
2050;DHT22;8478;49.208;8.806;2023-05-24T08:49:50;16.50;99.90
2050;DHT22;8478;49.208;8.806;2023-05-24T08:52:16;16.50;99.90
2050;DHT22;8478;49.208;8.806;2023-05-24T08:54:42;16.50;99.90
2050;DHT22;8478;49.208;8.806;2023-05-24T08:57:09;16.50;99.90
2050;DHT22;8478;49.208;8.806;2023-05-24T08:59:38;16.50;99.90
2050;DHT22;8478;49.208;8.806;2023-05-24T09:02:05;16.50;99.90
2050;DHT22;8478;49.208;8.806;2023-05-24T09:04:34;16.50;99.90
2050;DHT22;8478;49.208;8.806;2023-05-24T09:07:00;16.50;99.90
2050;DHT22;8478;49.208;8.806;2023-05-24T09:09:27;16.50;99.90
2050;DHT22;8478;49.208;8.806;2023-05-24T09:11:55;16.50;99.90
2050;DHT22;8478;49.208;8.806;2023-05-24T09:14:21;16.50;99.90
2050;DHT22;8478;49.208;8.806;2023-05-24T09:16:47;16.50;99.90
2050;DHT22;8478;49.208;8.806;2023-05-24T09:19:13;16.50;99.90
2050;DHT22;8478;49.208;8.806;2023-05-24T09:21:39;16.50;99.90
2050;DHT22;8478;49.208;8.806;2023-05-24T09:24:10;16.50;99.90
2050;DHT22;8478;49.208;8.806;2023-05-24T09:26:36;16.50;99.90
2050;DHT22;8478;49.208;8.806;2023-05-24T09:29:06;16.50;99.90
2050;DHT22;8478;49.208;8.806;2023-05-24T09:31:37;16.50;99.90
2050;DHT22;8478;49.208;8.806;2023-05-24T09:34:09;16.50;99.90
2050;DHT22;8478;49.208;8.806;2023-05-24T09:36:40;16.50;99.90
2050;DHT22;8478;49.208;8.806;2023-05-24T09:39:08;16.50;99.90
2050;DHT22;8478;49.208;8.806;2023-05-24T09:41:35;16.50;99.90
2050;DHT22;8478;49.208;8.806;2023-05-24T09:44:02;16.50;99.90
2050;DHT22;8478;49.208;8.806;2023-05-24T09:46:28;16.50;99.90
2050;DHT22;8478;49.208;8.806;2023-05-24T09:49:00;16.50;99.90
2050;DHT22;8478;49.208;8.806;2023-05-24T09:51:28;16.50;99.90
2050;DHT22;8478;49.208;8.806;2023-05-24T09:54:00;16.50;99.90
2050;DHT22;8478;49.208;8.806;2023-05-24T09:56:26;16.50;99.90
2050;DHT22;8478;49.208;8.806;2023-05-24T09:58:51;16.50;99.90
2050;DHT22;8478;49.208;8.806;2023-05-24T10:01:22;16.50;99.90
2050;DHT22;8478;49.208;8.806;2023-05-24T10:03:57;16.50;99.90
2050;DHT22;8478;49.208;8.806;2023-05-24T10:06:24;16.50;99.90
2050;DHT22;8478;49.208;8.806;2023-05-24T10:08:50;16.50;99.90
2050;DHT22;8478;49.208;8.806;2023-05-24T10:11:17;16.50;99.90
2050;DHT22;8478;49.208;8.806;2023-05-24T10:13:43;16.50;99.90
2050;DHT22;8478;49.208;8.806;2023-05-24T10:16:09;16.50;99.90
2050;DHT22;8478;49.208;8.806;2023-05-24T10:18:35;16.50;99.90
2050;DHT22;8478;49.208;8.806;2023-05-24T10:21:04;16.50;99.90
2050;DHT22;8478;49.208;8.806;2023-05-24T10:23:33;16.50;99.90
2050;DHT22;8478;49.208;8.806;2023-05-24T10:26:05;16.50;99.90
2050;DHT22;8478;49.208;8.806;2023-05-24T10:28:44;16.50;99.90
2050;DHT22;8478;49.208;8.806;2023-05-24T10:31:14;16.50;99.90
2050;DHT22;8478;49.208;8.806;2023-05-24T10:33:43;16.50;99.90
2050;DHT22;8478;49.208;8.806;2023-05-24T10:36:12;16.50;99.90
2050;DHT22;8478;49.208;8.806;2023-05-24T10:38:38;16.50;99.90
2050;DHT22;8478;49.208;8.806;2023-05-24T10:41:05;16.50;99.90
2050;DHT22;8478;49.208;8.806;2023-05-24T10:43:36;16.50;99.90
2050;DHT22;8478;49.208;8.806;2023-05-24T10:46:03;16.50;99.90
2050;DHT22;8478;49.208;8.806;2023-05-24T10:50:55;16.50;99.90
2050;DHT22;8478;49.208;8.806;2023-05-24T10:53:27;16.50;99.90
2050;DHT22;8478;49.208;8.806;2023-05-24T10:56:00;16.50;99.90
2050;DHT22;8478;49.208;8.806;2023-05-24T11:01:29;16.50;99.90
2050;DHT22;8478;49.208;8.806;2023-05-24T11:04:25;16.50;99.90
2050;DHT22;8478;49.208;8.806;2023-05-24T11:09:23;16.50;99.90
2050;DHT22;8478;49.208;8.806;2023-05-24T11:11:54;16.50;99.90
2050;DHT22;8478;49.208;8.806;2023-05-24T11:14:23;16.50;99.90
2050;DHT22;8478;49.208;8.806;2023-05-24T11:16:49;16.50;99.90
2050;DHT22;8478;49.208;8.806;2023-05-24T11:19:19;16.50;99.90
2050;DHT22;8478;49.208;8.806;2023-05-24T11:21:47;16.50;99.90
2050;DHT22;8478;49.208;8.806;2023-05-24T11:24:15;16.50;99.90
2050;DHT22;8478;49.208;8.806;2023-05-24T11:26:42;16.50;99.90
2050;DHT22;8478;49.208;8.806;2023-05-24T11:29:08;16.50;99.90
2050;DHT22;8478;49.208;8.806;2023-05-24T11:31:34;16.50;99.90
2050;DHT22;8478;49.208;8.806;2023-05-24T11:34:08;16.50;99.90
2050;DHT22;8478;49.208;8.806;2023-05-24T11:36:34;16.50;99.90
2050;DHT22;8478;49.208;8.806;2023-05-24T11:39:01;16.50;99.90
2050;DHT22;8478;49.208;8.806;2023-05-24T11:41:37;16.50;99.90
2050;DHT22;8478;49.208;8.806;2023-05-24T11:44:03;16.50;99.90
2050;DHT22;8478;49.208;8.806;2023-05-24T11:46:29;16.50;99.90
2050;DHT22;8478;49.208;8.806;2023-05-24T11:48:58;16.50;99.90
2050;DHT22;8478;49.208;8.806;2023-05-24T11:51:28;16.50;99.90
2050;DHT22;8478;49.208;8.806;2023-05-24T11:53:58;16.50;99.90
2050;DHT22;8478;49.208;8.806;2023-05-24T11:56:29;16.50;99.90
2050;DHT22;8478;49.208;8.806;2023-05-24T11:59:16;16.50;99.90
2050;DHT22;8478;49.208;8.806;2023-05-24T12:01:43;16.50;99.90
2050;DHT22;8478;49.208;8.806;2023-05-24T12:04:09;16.50;99.90
2050;DHT22;8478;49.208;8.806;2023-05-24T12:06:43;16.50;99.90
2050;DHT22;8478;49.208;8.806;2023-05-24T12:09:10;16.50;99.90
2050;DHT22;8478;49.208;8.806;2023-05-24T12:11:42;16.50;99.90
2050;DHT22;8478;49.208;8.806;2023-05-24T12:14:15;16.50;99.90
2050;DHT22;8478;49.208;8.806;2023-05-24T12:16:42;16.50;99.90
2050;DHT22;8478;49.208;8.806;2023-05-24T12:19:15;16.50;99.90
2050;DHT22;8478;49.208;8.806;2023-05-24T12:21:41;16.50;99.90
2050;DHT22;8478;49.208;8.806;2023-05-24T12:24:10;16.50;99.90
2050;DHT22;8478;49.208;8.806;2023-05-24T12:26:40;16.50;99.90
2050;DHT22;8478;49.208;8.806;2023-05-24T12:29:06;16.50;99.90
2050;DHT22;8478;49.208;8.806;2023-05-24T12:31:33;16.50;99.90
2050;DHT22;8478;49.208;8.806;2023-05-24T12:33:59;16.50;99.90
2050;DHT22;8478;49.208;8.806;2023-05-24T12:36:26;16.50;99.90
2050;DHT22;8478;49.208;8.806;2023-05-24T12:38:52;16.50;99.90
2050;DHT22;8478;49.208;8.806;2023-05-24T12:41:18;16.50;99.90
2050;DHT22;8478;49.208;8.806;2023-05-24T12:43:44;16.50;99.90
2050;DHT22;8478;49.208;8.806;2023-05-24T12:46:10;16.50;99.90
2050;DHT22;8478;49.208;8.806;2023-05-24T12:48:36;16.50;99.90
2050;DHT22;8478;49.208;8.806;2023-05-24T12:51:01;16.50;99.90
2050;DHT22;8478;49.208;8.806;2023-05-24T12:53:28;16.50;99.90
2050;DHT22;8478;49.208;8.806;2023-05-24T12:55:54;16.50;99.90
2050;DHT22;8478;49.208;8.806;2023-05-24T12:58:21;16.50;99.90
2050;DHT22;8478;49.208;8.806;2023-05-24T13:00:46;16.50;99.90
2050;DHT22;8478;49.208;8.806;2023-05-24T13:03:14;16.50;99.90
2050;DHT22;8478;49.208;8.806;2023-05-24T13:05:40;16.50;99.90
2050;DHT22;8478;49.208;8.806;2023-05-24T13:08:07;16.50;99.90
2050;DHT22;8478;49.208;8.806;2023-05-24T13:10:32;16.50;99.90
2050;DHT22;8478;49.208;8.806;2023-05-24T13:12:58;16.50;99.90
2050;DHT22;8478;49.208;8.806;2023-05-24T13:15:24;16.50;99.90
2050;DHT22;8478;49.208;8.806;2023-05-24T13:17:51;16.50;99.90
2050;DHT22;8478;49.208;8.806;2023-05-24T13:20:18;16.50;99.90
2050;DHT22;8478;49.208;8.806;2023-05-24T13:22:47;16.50;99.90
2050;DHT22;8478;49.208;8.806;2023-05-24T13:25:14;16.50;99.90
2050;DHT22;8478;49.208;8.806;2023-05-24T13:27:40;16.50;99.90
2050;DHT22;8478;49.208;8.806;2023-05-24T13:30:06;16.50;99.90
2050;DHT22;8478;49.208;8.806;2023-05-24T13:32:32;16.60;99.90
2050;DHT22;8478;49.208;8.806;2023-05-24T13:34:58;16.60;99.90
2050;DHT22;8478;49.208;8.806;2023-05-24T13:37:24;16.60;99.90
2050;DHT22;8478;49.208;8.806;2023-05-24T13:39:50;16.50;99.90
2050;DHT22;8478;49.208;8.806;2023-05-24T13:42:15;16.50;99.90
2050;DHT22;8478;49.208;8.806;2023-05-24T13:44:41;16.50;99.90
2050;DHT22;8478;49.208;8.806;2023-05-24T13:47:07;16.60;99.90
2050;DHT22;8478;49.208;8.806;2023-05-24T13:49:34;16.50;99.90
2050;DHT22;8478;49.208;8.806;2023-05-24T13:51:59;16.60;99.90
2050;DHT22;8478;49.208;8.806;2023-05-24T13:54:25;16.60;99.90
2050;DHT22;8478;49.208;8.806;2023-05-24T13:56:52;16.50;99.90
2050;DHT22;8478;49.208;8.806;2023-05-24T13:59:21;16.60;99.90
2050;DHT22;8478;49.208;8.806;2023-05-24T14:01:47;16.60;99.90
2050;DHT22;8478;49.208;8.806;2023-05-24T14:04:12;16.60;99.90
2050;DHT22;8478;49.208;8.806;2023-05-24T14:06:38;16.60;99.90
2050;DHT22;8478;49.208;8.806;2023-05-24T14:09:05;16.60;99.90
2050;DHT22;8478;49.208;8.806;2023-05-24T14:11:33;16.60;99.90
2050;DHT22;8478;49.208;8.806;2023-05-24T14:14:00;16.60;99.90
2050;DHT22;8478;49.208;8.806;2023-05-24T14:16:27;16.60;99.90
2050;DHT22;8478;49.208;8.806;2023-05-24T14:18:53;16.60;99.90
2050;DHT22;8478;49.208;8.806;2023-05-24T14:21:19;16.60;99.90
2050;DHT22;8478;49.208;8.806;2023-05-24T14:23:46;16.50;99.90
2050;DHT22;8478;49.208;8.806;2023-05-24T14:26:11;16.60;99.90
2050;DHT22;8478;49.208;8.806;2023-05-24T14:28:37;16.60;99.90
2050;DHT22;8478;49.208;8.806;2023-05-24T14:31:03;16.60;99.90
2050;DHT22;8478;49.208;8.806;2023-05-24T14:33:29;16.60;99.90
2050;DHT22;8478;49.208;8.806;2023-05-24T14:35:54;16.60;99.90
2050;DHT22;8478;49.208;8.806;2023-05-24T14:38:20;16.60;99.90
2050;DHT22;8478;49.208;8.806;2023-05-24T14:40:48;16.60;99.90
2050;DHT22;8478;49.208;8.806;2023-05-24T14:43:13;16.60;99.90
2050;DHT22;8478;49.208;8.806;2023-05-24T14:45:39;16.60;99.90
2050;DHT22;8478;49.208;8.806;2023-05-24T14:48:06;16.60;99.90
2050;DHT22;8478;49.208;8.806;2023-05-24T14:50:35;16.50;99.90
2050;DHT22;8478;49.208;8.806;2023-05-24T14:53:01;16.60;99.90
2050;DHT22;8478;49.208;8.806;2023-05-24T14:55:33;16.60;99.90
2050;DHT22;8478;49.208;8.806;2023-05-24T14:57:58;16.60;99.90
2050;DHT22;8478;49.208;8.806;2023-05-24T15:00:24;16.60;99.90
2050;DHT22;8478;49.208;8.806;2023-05-24T15:02:50;16.60;99.90
2050;DHT22;8478;49.208;8.806;2023-05-24T15:05:16;16.60;99.90
2050;DHT22;8478;49.208;8.806;2023-05-24T15:07:42;16.60;99.90
2050;DHT22;8478;49.208;8.806;2023-05-24T15:10:08;16.60;99.90
2050;DHT22;8478;49.208;8.806;2023-05-24T15:12:33;16.60;99.90
2050;DHT22;8478;49.208;8.806;2023-05-24T15:14:59;16.60;99.90
2050;DHT22;8478;49.208;8.806;2023-05-24T15:17:24;16.60;99.90
2050;DHT22;8478;49.208;8.806;2023-05-24T15:19:50;16.60;99.90
2050;DHT22;8478;49.208;8.806;2023-05-24T15:22:17;16.60;99.90
2050;DHT22;8478;49.208;8.806;2023-05-24T15:24:43;16.60;99.90
2050;DHT22;8478;49.208;8.806;2023-05-24T15:27:09;16.60;99.90
2050;DHT22;8478;49.208;8.806;2023-05-24T15:29:35;16.60;99.90
2050;DHT22;8478;49.208;8.806;2023-05-24T15:32:01;16.60;99.90
2050;DHT22;8478;49.208;8.806;2023-05-24T15:34:27;16.60;99.90
2050;DHT22;8478;49.208;8.806;2023-05-24T15:36:52;16.60;99.90
2050;DHT22;8478;49.208;8.806;2023-05-24T15:39:19;16.60;99.90
2050;DHT22;8478;49.208;8.806;2023-05-24T15:41:45;16.60;99.90
2050;DHT22;8478;49.208;8.806;2023-05-24T15:44:11;16.60;99.90
2050;DHT22;8478;49.208;8.806;2023-05-24T15:46:38;16.60;99.90
2050;DHT22;8478;49.208;8.806;2023-05-24T15:49:04;16.60;99.90
2050;DHT22;8478;49.208;8.806;2023-05-24T15:51:30;16.60;99.90
2050;DHT22;8478;49.208;8.806;2023-05-24T15:53:55;16.60;99.90
2050;DHT22;8478;49.208;8.806;2023-05-24T15:56:21;16.60;99.90
2050;DHT22;8478;49.208;8.806;2023-05-24T15:58:47;16.60;99.90
2050;DHT22;8478;49.208;8.806;2023-05-24T16:01:13;16.60;99.90
2050;DHT22;8478;49.208;8.806;2023-05-24T16:03:39;16.60;99.90
2050;DHT22;8478;49.208;8.806;2023-05-24T16:06:05;16.60;99.90
2050;DHT22;8478;49.208;8.806;2023-05-24T16:08:31;16.60;99.90
2050;DHT22;8478;49.208;8.806;2023-05-24T16:10:57;16.60;99.90
2050;DHT22;8478;49.208;8.806;2023-05-24T16:13:23;16.60;99.90
2050;DHT22;8478;49.208;8.806;2023-05-24T16:15:48;16.60;99.90
2050;DHT22;8478;49.208;8.806;2023-05-24T16:18:17;16.60;99.90